PANV

Details ICAO PANV (ANV)
Name ANVIK
Region USA (Alaska)
Timezone America/Anchorage (UTC-8.0)
Plans Departing 5
Arriving 2
Stats Elevation 309 ft / 94 m (AMSL)
Location 62.646735° -160.190659°
Runways 1
Magnetic Variation 12.204° E
Sunrise 2018-05-27 13:10:43 UTC / 2018-05-27 05:10:43 Local
Sunset 2018-05-28 08:08:06 UTC / 2018-05-28 00:08:06 Local
Advertisement - Login to hide

Runways

ID Width Length Bearing (true) Bearing (mag) Surface Threshold Offset Overrun Length
17 75 ft / 23 m 2,953 ft / 900 m 187.47° 175.27° Gravel 0 ft / 0 m 230 ft / 70 m
35 75 ft / 23 m 2,953 ft / 900 m 7.47° 355.27° Gravel 0 ft / 0 m 299 ft / 91 m

Map

Weather


0- 5 10 15 20 25 30 35+ Temperature / ° C

Clouds and Precipitation
Forecast for 2018-05-27 18:00 UTC. Updated 5 hours ago

Ground ~20,000 ft ~40,000 ft Winds

METAR

PANV 272104Z AUTO 26006KT 10SM BKN030 08/01 A2990 RMK AO2

TAF

Not found

Frequencies

Recorded 133.55 MHz AWOS 3
Unicom 122.70 MHz CTAF/UNICOM
Warning: Do not use this data for real-world aviation or navigation. No guarantee of current accuracy is given.